Airfield :
LOGIN :

Register | Disclaimer

   EN    FR    IT 

 










Legend :    VFR   Marginal VFR   IFR   Intensive IFR   Very Intensive IFR
Visi :
Ceiling :
>= 8 km
>= 3000ft
5 to 8 km
1000 to 3000 ft
1500m to 5 km
500 to 1000 ft
800 to 1500m
200 to 500 ft
< 800m
< 200 ft
Symbols :   Thunderstorms  Fog  Heavy snow  Heavy precipitations  Wind > 20 kt
SIGMETs :     Misc.  Thunderstorms  Icing  Turbulence  Mountain Waves  Volcanic Ashes






- Airport Elevation : 219 ft
- IATA code : DNR


LFRD - Dinard

CURRENT METAR :
  • 210100Z AUTO 24012KT CAVOK 06/04 Q0991 BECMG 26015G25KT

EXPIRED METARs :
  • 210030Z AUTO 26013KT CAVOK 07/04 Q0990 BECMG 26015G25KT
  • 210000Z AUTO 26014KT 9999 FEW026 BKN070 BKN082 07/05 Q0989 BECMG 26015G25KT
  • 202330Z AUTO 27016KT 240V300 9999 FEW013 OVC062 08/05 Q0989 BECMG 26015G25KT
  • 202300Z AUTO 28023KT 7000 -RA BKN008/// OVC014/// ///CB 08/07 Q0988 TEMPO 2000 RA BECMG 26015G25KT BKN025
  • 202230Z AUTO 28020G30KT 250V310 3200 R35L/1400U -RA BR FEW008/// SCT013/// BKN019/// ///CB 09/08 Q0986 TEMPO 24025G40KT BECMG 9999 NSW BKN025

TAF TAF LFRD
Valid from the 21 at 00:00 until the 22 at 00:00 UTC


202300Z 2100/2124 27020G35KT 9999 BKN025
BECMG 2100/2102 26015G25KT
BECMG 2103/2106 24010KT
BECMG 2108/2110 18012KT
BECMG 2112/2115 22020G35KT
TEMPO 2112/2120 4000 RA BKN008 OVC030
TEMPO 2112/2118 2000 RA BKN008 BKN015CB
BECMG 2117/2119 35017G27KT
BECMG 2119/2122 30010KT
BECMG 2122/2124 23010KT
ATIS : +33 2 99 16 81 50



MET'MAP, your aeronautical weather chart ! - Copyright ORBIFLY December 2007 - Disclaimer

ORBIFLY MET'MAP TEAM :

Programming & Development : Alexandra Zaïnal
Concept & original design : Baudouin d'Aumeries
Assistance for programming : Marc-Olivier Méhu
Technical & hardware support : Manuel Goepfert

Contact : metmap@orbifly.com




SOURCES & CREDITS :

   NOAA